Terminal Aerodrome Forecast
Issued by NWS

Home | Current Version | Previous Version | Graphics & Text | Print | Product List | Glossary On
Versions: 1 2 3 4 5 6 7 8 9 10 11 12 13 14 15 16 17 18 19 20 21 22 23 24 25 26 27 28 29
000
FTUS43 KLOT 181550 AAC
TAFMDW
TAF AMD
KMDW 181550Z 1816/1918 24011KT 6SM BR OVC008
      TEMPO 1816/1817 2SM -DZ BR OVC006
     FM181730 23012G18KT 6SM BR SCT009 OVC015
     FM182200 22011KT P6SM BKN020
     FM190200 22012KT P6SM SCT015 BKN250 WS020/27045KT
     FM191200 26012KT P6SM BKN250=

USA.gov is the U.S. government's official web portal to all federal, state and local government web resources and services.